createdAt,value
2019-04-11T00:02:16.347Z,67.40
2019-04-11T00:04:54.726Z,67.10
2019-04-11T00:07:24.548Z,66.90
2019-04-11T00:09:55.056Z,67.10
2019-04-11T00:12:24.315Z,66.50
2019-04-11T00:14:53.981Z,66.90
2019-04-11T00:17:23.271Z,67.10
2019-04-11T00:19:56.298Z,67.40
2019-04-11T00:22:25.734Z,67.20
2019-04-11T00:24:55.773Z,67.30
2019-04-11T00:27:26.933Z,68.00
2019-04-11T00:29:58.055Z,67.40
2019-04-11T00:32:27.568Z,67.20
2019-04-11T00:34:57.394Z,67.10
2019-04-11T00:37:27.348Z,67.30
2019-04-11T00:39:56.846Z,67.40
2019-04-11T00:42:26.304Z,67.60
2019-04-11T00:44:57.003Z,67.60
2019-04-11T00:47:29.103Z,67.90
2019-04-11T00:49:58.863Z,67.80
2019-04-11T00:52:31.462Z,68.00
2019-04-11T00:55:02.917Z,68.20
2019-04-11T00:57:32.862Z,68.30
2019-04-11T01:00:02.882Z,68.40
2019-04-11T01:02:33.709Z,68.00
2019-04-11T01:05:03.547Z,68.20
2019-04-11T01:07:33.198Z,67.70
2019-04-11T01:10:04.562Z,67.70
2019-04-11T01:12:34.602Z,68.00
2019-04-11T01:15:05.288Z,68.10
2019-04-11T01:17:34.688Z,68.30
2019-04-11T01:20:04.906Z,68.10
2019-04-11T01:22:34.331Z,68.00
2019-04-11T01:25:04.172Z,68.30
2019-04-11T01:27:36.243Z,68.00
2019-04-11T01:30:10.147Z,67.80
2019-04-11T01:32:40.271Z,67.40
2019-04-11T01:35:09.537Z,67.70
2019-04-11T01:37:42.615Z,67.80
2019-04-11T01:40:11.809Z,67.90
2019-04-11T01:42:43.651Z,68.10
2019-04-11T01:45:13.702Z,67.90
2019-04-11T01:47:57.404Z,67.70
2019-04-11T01:50:29.202Z,67.90
2019-04-11T01:53:06.724Z,68.00
2019-04-11T01:55:42.827Z,67.70
2019-04-11T01:58:28.802Z,68.10
2019-04-11T02:01:23.615Z,68.50
2019-04-11T02:04:01.558Z,69.10
2019-04-11T02:06:31.936Z,68.50
2019-04-11T02:09:01.925Z,68.50
2019-04-11T02:11:31.846Z,68.60
2019-04-11T02:14:10.443Z,68.30
2019-04-11T02:16:34.851Z,68.40
2019-04-11T02:19:06.190Z,68.40
2019-04-11T02:21:36.322Z,68.80
2019-04-11T02:24:28.310Z,68.20
2019-04-11T02:27:03.170Z,68.30
2019-04-11T02:29:33.646Z,68.40
2019-04-11T02:32:12.357Z,68.60
2019-04-11T02:34:43.750Z,68.00
2019-04-11T02:37:13.468Z,68.10
2019-04-11T02:39:44.755Z,68.10
2019-04-11T02:42:14.997Z,67.90
2019-04-11T02:44:59.611Z,68.00
2019-04-11T02:47:20.344Z,68.10
2019-04-11T02:49:47.761Z,67.90
2019-04-11T02:52:25.344Z,68.40
2019-04-11T02:55:03.420Z,68.20
2019-04-11T02:57:36.155Z,68.00
2019-04-11T03:00:13.009Z,68.00
2019-04-11T03:02:44.748Z,67.80
2019-04-11T03:05:16.389Z,68.50
2019-04-11T03:07:49.803Z,68.20
2019-04-11T03:10:22.241Z,68.00
2019-04-11T03:12:52.684Z,67.80
2019-04-11T03:15:37.698Z,67.90
2019-04-11T03:17:57.623Z,67.70
2019-04-11T03:20:36.380Z,67.80
2019-04-11T03:23:04.827Z,68.00
2019-04-11T03:25:30.497Z,68.30
2019-04-11T03:28:01.612Z,67.90
2019-04-11T03:30:48.154Z,67.80
2019-04-11T03:36:22.044Z,68.40
2019-04-11T03:38:29.357Z,67.60
2019-04-11T03:41:04.315Z,67.80
2019-04-11T03:43:34.611Z,68.00
2019-04-11T03:46:15.911Z,67.80
2019-04-11T03:48:39.262Z,68.00
2019-04-11T03:50:57.400Z,68.00
2019-04-11T03:53:29.674Z,67.90
2019-04-11T03:56:01.656Z,68.30
2019-04-11T03:58:35.120Z,69.20
2019-04-11T04:01:08.449Z,68.20
2019-04-11T04:03:36.608Z,68.30
2019-04-11T04:06:12.835Z,68.40
2019-04-11T04:08:48.529Z,68.70
2019-04-11T04:11:22.181Z,68.50
2019-04-11T04:13:59.545Z,68.70
2019-04-11T04:16:51.037Z,68.60
2019-04-11T04:19:28.567Z,68.70
2019-04-11T04:22:04.923Z,68.70
2019-04-11T04:24:40.033Z,69.20
2019-04-11T04:27:09.952Z,68.70
2019-04-11T04:29:49.654Z,68.90
2019-04-11T04:32:25.054Z,68.60
2019-04-11T04:34:56.217Z,70.40
2019-04-11T04:37:26.666Z,69.80
2019-04-11T04:40:23.872Z,68.90
2019-04-11T04:42:44.500Z,69.00
2019-04-11T04:45:11.808Z,69.10
2019-04-11T04:47:47.899Z,69.00
2019-04-11T04:50:13.351Z,69.30
2019-04-11T04:52:45.227Z,69.20
2019-04-11T04:55:17.423Z,69.40
2019-04-11T04:57:51.087Z,69.40
2019-04-11T05:00:20.841Z,69.20
2019-04-11T05:02:52.150Z,69.60
2019-04-11T05:05:24.196Z,69.40
2019-04-11T05:08:00.686Z,69.40
2019-04-11T05:10:33.055Z,69.50
2019-04-11T05:13:03.597Z,69.70
2019-04-11T05:15:36.610Z,69.20
2019-04-11T05:18:06.242Z,69.50
2019-04-11T05:20:36.391Z,69.30
2019-04-11T05:23:06.406Z,69.60
2019-04-11T05:25:39.927Z,69.80
2019-04-11T05:28:09.914Z,69.60
2019-04-11T05:30:39.840Z,70.30
2019-04-11T05:33:11.551Z,70.40
2019-04-11T05:35:41.715Z,72.20
2019-04-11T05:38:11.084Z,72.90
2019-04-11T05:40:42.307Z,70.10
2019-04-11T05:43:11.549Z,70.10
2019-04-11T05:45:42.242Z,70.10
2019-04-11T05:48:16.052Z,69.30
2019-04-11T05:50:52.967Z,69.50
2019-04-11T05:53:22.793Z,70.10
2019-04-11T05:55:53.152Z,70.00
2019-04-11T05:58:22.523Z,68.80
2019-04-11T06:00:53.382Z,70.60
2019-04-11T06:03:24.000Z,69.70
2019-04-11T06:05:59.697Z,69.00
2019-04-11T06:08:30.729Z,67.70
2019-04-11T06:11:09.412Z,67.20
2019-04-11T06:13:49.422Z,67.40
2019-04-11T06:16:20.921Z,66.60
2019-04-11T06:19:00.798Z,66.20
2019-04-11T06:21:38.270Z,66.40
2019-04-11T06:24:25.932Z,66.20
2019-04-11T06:27:04.044Z,66.50
2019-04-11T06:29:36.926Z,66.60
2019-04-11T06:32:07.928Z,66.50
2019-04-11T06:34:44.727Z,66.30
2019-04-11T06:37:27.728Z,65.80
2019-04-11T06:39:59.670Z,65.60
2019-04-11T06:42:31.851Z,65.20
2019-04-11T06:45:15.566Z,64.90
2019-04-11T06:47:47.199Z,64.90
2019-04-11T06:50:18.032Z,64.50
2019-04-11T06:53:07.403Z,64.60
2019-04-11T06:55:55.129Z,63.90
2019-04-11T06:58:29.745Z,64.10
2019-04-11T07:01:01.307Z,64.00
2019-04-11T07:03:45.310Z,63.50
2019-04-11T07:06:19.595Z,63.90
2019-04-11T07:09:09.533Z,63.00
2019-04-11T07:11:57.050Z,63.00
2019-04-11T07:14:45.852Z,63.20
2019-04-11T07:17:36.921Z,64.00
2019-04-11T07:20:24.998Z,62.70
2019-04-11T07:23:11.749Z,62.20
2019-04-11T07:26:00.830Z,62.60
2019-04-11T07:28:43.886Z,62.50
2019-04-11T07:31:15.045Z,62.20
2019-04-11T07:34:08.610Z,61.60
2019-04-11T07:36:58.043Z,61.60
2019-04-11T07:39:28.936Z,61.10
2019-04-11T07:42:00.440Z,61.40
2019-04-11T07:44:34.440Z,60.70
2019-04-11T07:47:17.077Z,61.00
2019-04-11T07:49:40.866Z,59.80
2019-04-11T07:52:12.924Z,60.10
2019-04-11T07:54:43.239Z,60.30
2019-04-11T07:57:26.326Z,59.50
2019-04-11T08:00:09.327Z,59.60
2019-04-11T08:02:57.398Z,60.20
2019-04-11T08:05:40.859Z,59.10
2019-04-11T08:08:30.258Z,59.20
2019-04-11T08:11:03.816Z,59.50
2019-04-11T08:13:34.641Z,58.50
2019-04-11T08:16:23.035Z,59.30
2019-04-11T08:18:59.687Z,58.10
2019-04-11T08:21:46.701Z,58.40
2019-04-11T08:24:18.483Z,57.80
2019-04-11T08:27:09.384Z,57.60
2019-04-11T08:29:38.718Z,57.20
2019-04-11T08:32:25.520Z,56.50
2019-04-11T08:35:02.451Z,56.90
2019-04-11T08:37:39.919Z,56.20
2019-04-11T08:40:11.515Z,56.30
2019-04-11T08:42:44.939Z,57.00
2019-04-11T08:45:17.409Z,56.90
2019-04-11T08:47:52.655Z,55.90
2019-04-11T08:50:22.847Z,56.10
2019-04-11T08:53:12.819Z,55.10
2019-04-11T08:55:51.981Z,55.70
2019-04-11T08:58:16.221Z,55.30
2019-04-11T09:00:52.659Z,56.40
2019-04-11T09:03:23.922Z,55.70
2019-04-11T09:06:09.887Z,54.80
2019-04-11T09:08:49.573Z,55.20
2019-04-11T09:11:29.378Z,55.20
2019-04-11T09:14:19.972Z,55.00
2019-04-11T09:16:52.156Z,55.20
2019-04-11T09:19:38.874Z,54.60
2019-04-11T09:22:13.056Z,53.70
2019-04-11T09:24:44.043Z,54.40
2019-04-11T09:27:31.546Z,54.20
2019-04-11T09:30:04.511Z,52.90
2019-04-11T09:32:46.473Z,54.10
2019-04-11T09:35:26.955Z,52.60
2019-04-11T09:38:00.092Z,52.20
2019-04-11T09:40:47.975Z,52.00
2019-04-11T09:43:26.165Z,52.30
2019-04-11T09:46:14.451Z,53.60
2019-04-11T09:48:48.267Z,51.80
2019-04-11T09:51:27.353Z,52.00
2019-04-11T09:54:10.197Z,53.10
2019-04-11T09:56:58.123Z,52.10
2019-04-11T09:59:31.528Z,50.90
2019-04-11T10:02:12.944Z,50.10
2019-04-11T10:04:45.216Z,50.70
2019-04-11T10:07:19.632Z,51.80
2019-04-11T10:10:05.317Z,52.00
2019-04-11T10:12:52.519Z,50.10
2019-04-11T10:15:23.288Z,49.80
2019-04-11T10:18:22.986Z,49.00
2019-04-11T10:20:43.128Z,48.90
2019-04-11T10:23:13.648Z,48.10
2019-04-11T10:25:43.406Z,47.00
2019-04-11T10:28:31.331Z,47.60
2019-04-11T10:31:06.265Z,46.30
2019-04-11T10:33:42.371Z,47.40
2019-04-11T10:36:21.535Z,47.40
2019-04-11T10:38:53.371Z,47.00
2019-04-11T10:41:26.693Z,46.40
2019-04-11T10:43:57.120Z,46.80
2019-04-11T10:46:49.927Z,46.60
2019-04-11T10:49:21.789Z,45.80
2019-04-11T10:51:58.215Z,46.60
2019-04-11T10:54:32.479Z,44.90
2019-04-11T10:57:15.969Z,44.90
2019-04-11T10:59:47.062Z,45.80
2019-04-11T11:02:33.724Z,44.40
2019-04-11T11:05:05.279Z,44.80
2019-04-11T11:07:34.991Z,43.70
2019-04-11T11:10:09.282Z,44.20
2019-04-11T11:12:47.596Z,44.70
2019-04-11T11:15:19.700Z,44.10
2019-04-11T11:18:33.359Z,43.90
2019-04-11T11:20:55.181Z,43.90
2019-04-11T11:23:40.740Z,43.30
2019-04-11T11:26:12.614Z,43.40
2019-04-11T11:28:50.850Z,43.20
2019-04-11T11:31:22.387Z,43.50
2019-04-11T11:33:52.086Z,43.60
2019-04-11T11:36:38.053Z,42.40
2019-04-11T11:39:10.944Z,42.20
2019-04-11T11:41:54.905Z,42.70
2019-04-11T11:44:25.202Z,42.80
2019-04-11T11:47:15.374Z,43.20
2019-04-11T11:49:54.731Z,42.30
2019-04-11T11:52:34.566Z,41.60
2019-04-11T11:55:04.641Z,41.30
2019-04-11T11:57:35.375Z,41.50
2019-04-11T12:00:07.520Z,41.40
2019-04-11T12:02:38.936Z,41.30
2019-04-11T12:05:14.744Z,41.00
2019-04-11T12:07:43.074Z,40.80
2019-04-11T12:10:19.625Z,40.40
2019-04-11T12:12:51.845Z,41.50
2019-04-11T12:15:41.328Z,43.20
2019-04-11T12:18:21.720Z,39.40
2019-04-11T12:21:07.697Z,39.80
2019-04-11T12:24:00.679Z,40.00
2019-04-11T12:26:28.813Z,40.20
2019-04-11T12:29:15.745Z,39.80
2019-04-11T12:31:52.227Z,40.50
2019-04-11T12:34:30.255Z,39.70
2019-04-11T12:37:00.126Z,40.00
2019-04-11T12:39:31.469Z,38.90
2019-04-11T12:42:02.435Z,38.30
2019-04-11T12:44:37.107Z,38.40
2019-04-11T12:47:22.835Z,38.00
2019-04-11T12:49:53.559Z,36.50
2019-04-11T12:52:24.237Z,35.60
2019-04-11T12:54:55.092Z,35.10
2019-04-11T12:57:25.787Z,34.80
2019-04-11T16:26:49.447Z,36.40
2019-04-11T16:29:26.405Z,26.20
2019-04-11T16:31:57.276Z,25.80
2019-04-11T16:34:30.463Z,22.60
2019-04-11T16:36:59.739Z,22.20
2019-04-11T16:39:33.299Z,22.40
2019-04-11T16:42:06.765Z,22.30
2019-04-11T16:44:42.985Z,22.80
2019-04-11T16:47:16.271Z,23.70
2019-04-11T16:49:49.171Z,25.10
2019-04-11T16:52:18.155Z,25.10
2019-04-11T16:54:47.144Z,25.00
2019-04-11T16:57:16.383Z,26.10
2019-04-11T16:59:45.134Z,26.50
2019-04-11T17:02:15.825Z,26.90
2019-04-11T17:04:44.747Z,27.30
2019-04-11T17:07:23.843Z,27.90
2019-04-11T17:09:56.815Z,28.80
2019-04-11T17:12:26.691Z,29.00
2019-04-11T17:15:01.110Z,29.40
2019-04-11T17:17:30.998Z,30.00
2019-04-11T17:20:00.659Z,30.20
2019-04-11T17:22:31.120Z,30.70
2019-04-11T17:25:00.062Z,32.50
2019-04-11T17:27:33.230Z,32.20
2019-04-11T17:30:02.060Z,32.60
2019-04-11T17:32:33.636Z,33.60
2019-04-11T17:35:03.629Z,33.50
2019-04-11T17:37:33.212Z,34.20
2019-04-11T17:40:06.597Z,34.40
2019-04-11T17:42:36.913Z,34.40
2019-04-11T17:45:07.068Z,34.30
2019-04-11T17:47:35.910Z,54.10
2019-04-11T17:50:06.552Z,41.40
2019-04-11T17:52:35.573Z,30.60
2019-04-11T17:55:11.429Z,31.10
2019-04-11T17:57:40.252Z,31.80
2019-04-11T18:00:11.592Z,32.40
2019-04-11T18:02:42.129Z,32.60
2019-04-11T18:05:12.232Z,33.40
2019-04-11T18:07:41.540Z,33.50
2019-04-11T18:10:10.442Z,34.40
2019-04-11T18:12:40.351Z,34.90
2019-04-11T18:15:09.275Z,35.00
2019-04-11T18:17:38.027Z,34.80
2019-04-11T18:20:09.839Z,34.70
2019-04-11T18:22:41.156Z,34.90
2019-04-11T18:25:10.204Z,35.00
2019-04-11T18:27:40.230Z,35.90
2019-04-11T18:30:11.747Z,35.50
2019-04-11T18:32:40.876Z,34.90
2019-04-11T18:35:09.720Z,35.40
2019-04-11T18:37:38.782Z,35.40
2019-04-11T18:40:10.447Z,36.10
2019-04-11T18:42:39.621Z,36.70
2019-04-11T18:45:08.623Z,36.70
2019-04-11T18:47:37.400Z,37.30
2019-04-11T18:50:09.207Z,37.10
2019-04-11T18:52:38.103Z,37.10
2019-04-11T18:55:07.534Z,38.10
2019-04-11T18:57:36.399Z,37.50
2019-04-11T19:00:07.958Z,37.90
2019-04-11T19:02:37.943Z,37.80
2019-04-11T19:05:10.931Z,38.00
2019-04-11T19:07:42.793Z,37.70
2019-04-11T19:10:14.448Z,38.10
2019-04-11T19:12:45.920Z,38.10
2019-04-11T19:15:13.792Z,38.50
2019-04-11T19:17:46.947Z,38.80
2019-04-11T19:20:18.961Z,38.60
2019-04-11T19:22:45.368Z,38.90
2019-04-11T19:25:15.177Z,38.70
2019-04-11T19:27:43.904Z,38.80
2019-04-11T19:30:12.668Z,38.90
2019-04-11T19:32:41.621Z,38.90
2019-04-11T19:35:11.494Z,39.20
2019-04-11T19:37:42.192Z,39.40
2019-04-11T19:40:10.787Z,40.70
2019-04-11T19:42:40.657Z,41.00
2019-04-11T19:45:09.421Z,40.40
2019-04-11T19:47:38.160Z,40.20
2019-04-11T19:50:07.194Z,40.80
2019-04-11T19:52:45.365Z,41.20
2019-04-11T19:55:18.882Z,40.90
2019-04-11T19:57:49.165Z,42.90
2019-04-11T20:00:21.379Z,42.30
2019-04-11T20:02:49.466Z,42.80
2019-04-11T20:05:21.332Z,43.40
2019-04-11T20:07:50.225Z,44.70
2019-04-11T20:10:20.206Z,45.10
2019-04-11T20:12:49.415Z,45.50
2019-04-11T20:15:18.157Z,45.80
2019-04-11T20:17:51.909Z,44.80
2019-04-11T20:20:19.846Z,44.90
2019-04-11T20:22:58.788Z,45.20
2019-04-11T20:25:20.225Z,45.60
2019-04-11T20:27:50.767Z,45.10
2019-04-11T20:30:26.177Z,44.90
2019-04-11T20:32:55.324Z,45.70
2019-04-11T20:35:29.177Z,45.30
2019-04-11T20:37:56.259Z,45.60
2019-04-11T20:40:26.253Z,45.50
2019-04-11T20:42:55.631Z,45.60
2019-04-11T20:45:28.543Z,46.00
2019-04-11T20:47:59.799Z,45.80
2019-04-11T20:50:29.011Z,46.30
2019-04-11T20:53:03.166Z,46.20
2019-04-11T20:55:28.750Z,46.40
2019-04-11T20:57:57.660Z,46.60
2019-04-11T21:00:26.444Z,46.20
2019-04-11T21:02:58.420Z,46.50
2019-04-11T21:05:30.596Z,46.70
2019-04-11T21:08:02.624Z,46.70
2019-04-11T21:10:31.828Z,46.70
2019-04-11T21:13:01.136Z,46.90
2019-04-11T21:15:30.003Z,46.70
2019-04-11T21:17:58.916Z,46.70
2019-04-11T21:20:29.816Z,47.10
2019-04-11T21:22:59.906Z,47.10
2019-04-11T21:25:31.005Z,47.60
2019-04-11T21:28:03.612Z,47.50
2019-04-11T21:30:32.466Z,47.30
2019-04-11T21:33:03.552Z,47.50
2019-04-11T21:35:33.486Z,47.60
2019-04-11T21:38:06.637Z,47.80
2019-04-11T21:40:42.371Z,47.90
2019-04-11T21:43:11.734Z,47.80
2019-04-11T21:45:41.046Z,48.10
2019-04-11T21:48:10.023Z,48.10
2019-04-11T21:50:40.591Z,48.20
2019-04-11T21:53:09.467Z,48.70
2019-04-11T21:55:41.811Z,48.60
2019-04-11T21:58:10.703Z,48.90
2019-04-11T22:00:42.972Z,48.40
2019-04-11T22:03:11.837Z,48.80
2019-04-11T22:05:42.116Z,48.70
2019-04-11T22:08:13.076Z,48.60
2019-04-11T22:10:41.918Z,48.90
2019-04-11T22:13:10.829Z,49.00
2019-04-11T22:15:42.418Z,48.80
2019-04-11T22:18:15.815Z,49.20
2019-04-11T22:20:41.158Z,48.90
2019-04-11T22:23:09.866Z,49.50
2019-04-11T22:25:38.664Z,49.50
2019-04-11T22:28:10.320Z,49.70
2019-04-11T22:30:39.036Z,49.90
2019-04-11T22:33:09.732Z,49.80
2019-04-11T22:35:38.740Z,50.20
2019-04-11T22:38:13.371Z,50.40
2019-04-11T22:40:44.281Z,50.60
2019-04-11T22:43:24.016Z,51.00
2019-04-11T22:45:45.113Z,51.10
2019-04-11T22:48:14.967Z,52.30
2019-04-11T22:50:43.958Z,51.60
2019-04-11T22:53:13.528Z,51.60
2019-04-11T22:55:42.553Z,52.10
2019-04-11T22:58:13.922Z,52.10
2019-04-11T23:00:45.029Z,52.90
2019-04-11T23:03:20.355Z,52.90
2019-04-11T23:05:49.203Z,52.90
2019-04-11T23:08:19.386Z,53.50
2019-04-11T23:10:48.512Z,54.00
2019-04-11T23:13:17.915Z,54.30
2019-04-11T23:15:46.708Z,55.10
2019-04-11T23:18:16.674Z,55.70
2019-04-11T23:20:47.472Z,56.00
2019-04-11T23:23:18.279Z,56.40
2019-04-11T23:25:48.271Z,56.60
2019-04-11T23:28:17.212Z,57.00
2019-04-11T23:30:50.387Z,57.10
2019-04-11T23:33:21.466Z,57.60
2019-04-11T23:35:51.221Z,57.80
2019-04-11T23:38:23.615Z,58.70
2019-04-11T23:40:53.781Z,58.10
2019-04-11T23:43:22.568Z,58.50
2019-04-11T23:45:53.344Z,58.40
2019-04-11T23:48:24.710Z,58.70
2019-04-11T23:50:55.181Z,58.60
2019-04-11T23:53:30.151Z,59.00
2019-04-11T23:56:00.171Z,59.20
2019-04-11T23:58:31.888Z,59.20
